createdAt,value
2022-11-06T00:00:17.779Z,12.10
2022-11-06T00:03:06.388Z,12.10
2022-11-06T00:06:12.419Z,12.10
2022-11-06T00:09:01.161Z,12.10
2022-11-06T00:11:50.840Z,12.10
2022-11-06T00:14:40.749Z,12.00
2022-11-06T00:17:29.134Z,12.00
2022-11-06T00:20:17.668Z,11.90
2022-11-06T00:23:06.081Z,11.90
2022-11-06T00:25:56.571Z,11.70
2022-11-06T00:28:45.137Z,11.70
2022-11-06T00:31:37.329Z,11.50
2022-11-06T00:34:25.721Z,11.50
2022-11-06T00:37:14.146Z,11.40
2022-11-06T00:40:02.734Z,11.30
2022-11-06T00:42:56.282Z,11.20
2022-11-06T00:45:44.722Z,11.10
2022-11-06T00:48:34.567Z,11.00
2022-11-06T00:51:24.585Z,10.90
2022-11-06T00:54:13.926Z,10.90
2022-11-06T00:57:02.336Z,10.80
2022-11-06T00:59:50.808Z,10.80
2022-11-06T01:02:39.536Z,10.80
2022-11-06T01:05:29.401Z,10.80
2022-11-06T01:08:18.024Z,10.70
2022-11-06T01:11:08.790Z,10.70
2022-11-06T01:13:59.475Z,10.70
2022-11-06T01:16:48.348Z,10.60
2022-11-06T01:19:36.804Z,10.60
2022-11-06T01:22:26.736Z,10.50
2022-11-06T01:25:15.125Z,10.50
2022-11-06T01:28:03.517Z,10.50
2022-11-06T01:30:52.109Z,10.50
2022-11-06T01:33:40.573Z,10.50
2022-11-06T01:36:29.297Z,10.60
2022-11-06T01:39:19.031Z,10.50
2022-11-06T01:42:07.461Z,10.40
2022-11-06T01:45:34.844Z,10.40
2022-11-06T01:48:26.837Z,10.40
2022-11-06T01:51:15.257Z,10.50
2022-11-06T01:54:04.431Z,10.40
2022-11-06T01:56:56.099Z,10.40
2022-11-06T01:59:46.392Z,10.40
2022-11-06T02:02:35.034Z,10.40
2022-11-06T02:05:23.497Z,10.50
2022-11-06T02:08:15.070Z,10.50
2022-11-06T02:11:04.086Z,10.50
2022-11-06T02:14:02.965Z,10.60
2022-11-06T02:16:55.831Z,10.60
2022-11-06T02:20:03.203Z,10.60
2022-11-06T02:23:30.498Z,10.70
2022-11-06T02:26:48.183Z,10.70
2022-11-06T02:29:39.513Z,10.80
2022-11-06T02:32:30.188Z,10.90
2022-11-06T02:35:21.815Z,10.90
2022-11-06T02:38:12.211Z,10.90
2022-11-06T02:41:03.409Z,10.90
2022-11-06T02:43:55.800Z,10.80
2022-11-06T02:46:46.698Z,10.80
2022-11-06T02:49:39.229Z,10.80
2022-11-06T02:52:30.209Z,10.70
2022-11-06T02:55:20.988Z,10.70
2022-11-06T02:58:14.104Z,10.70
2022-11-06T03:01:06.988Z,10.70
2022-11-06T03:03:57.619Z,10.70
2022-11-06T03:06:48.984Z,10.60
2022-11-06T03:09:37.847Z,10.60
2022-11-06T03:12:29.203Z,10.60
2022-11-06T03:15:23.565Z,10.60
2022-11-06T03:18:16.479Z,10.60
2022-11-06T03:21:08.526Z,10.60
2022-11-06T03:23:58.940Z,10.60
2022-11-06T03:26:49.374Z,10.60
2022-11-06T03:29:40.680Z,10.50
2022-11-06T03:32:31.477Z,10.50
2022-11-06T03:35:24.577Z,10.40
2022-11-06T03:38:16.349Z,10.30
2022-11-06T03:41:08.109Z,10.30
2022-11-06T03:43:57.290Z,10.20
2022-11-06T03:46:48.601Z,10.10
2022-11-06T03:49:39.708Z,10.10
2022-11-06T03:52:32.477Z,10.10
2022-11-06T03:55:23.278Z,10.00
2022-11-06T03:58:13.824Z,10.00
2022-11-06T04:01:05.022Z,10.00
2022-11-06T04:03:57.519Z,10.00
2022-11-06T04:06:48.513Z,9.90
2022-11-06T04:09:57.787Z,9.90
2022-11-06T04:13:03.894Z,9.90
2022-11-06T04:15:53.797Z,9.90
2022-11-06T04:18:42.191Z,9.80
2022-11-06T04:21:41.060Z,9.80
2022-11-06T04:25:00.137Z,9.80
2022-11-06T04:28:03.506Z,9.80
2022-11-06T04:30:58.270Z,9.80
2022-11-06T04:33:50.624Z,9.80
2022-11-06T04:36:43.393Z,9.80
2022-11-06T04:39:38.182Z,9.70
2022-11-06T04:42:30.501Z,9.70
2022-11-06T04:45:23.256Z,9.70
2022-11-06T04:48:12.035Z,9.70
2022-11-06T04:51:02.995Z,9.60
2022-11-06T04:53:52.510Z,9.60
2022-11-06T04:56:45.821Z,9.60
2022-11-06T04:59:37.175Z,9.60
2022-11-06T05:02:25.742Z,9.60
2022-11-06T05:05:14.185Z,9.50
2022-11-06T05:08:02.622Z,9.50
2022-11-06T05:10:50.986Z,9.50
2022-11-06T05:13:39.393Z,9.40
2022-11-06T05:16:29.126Z,9.40
2022-11-06T05:19:17.555Z,9.40
2022-11-06T05:22:32.023Z,9.30
2022-11-06T05:25:20.483Z,9.30
2022-11-06T05:28:09.219Z,9.30
2022-11-06T05:30:57.996Z,9.30
2022-11-06T05:33:47.773Z,9.20
2022-11-06T05:36:36.178Z,9.10
2022-11-06T05:39:24.544Z,9.10
2022-11-06T05:42:12.914Z,9.00
2022-11-06T05:45:01.279Z,8.90
2022-11-06T05:47:49.688Z,8.90
2022-11-06T05:50:39.640Z,8.80
2022-11-06T05:53:37.572Z,8.80
2022-11-06T05:56:25.975Z,8.80
2022-11-06T05:59:14.317Z,8.70
2022-11-06T06:02:02.872Z,8.70
2022-11-06T06:04:51.370Z,8.70
2022-11-06T06:07:41.119Z,8.70
2022-11-06T06:10:29.498Z,8.70
2022-11-06T06:13:18.122Z,8.70
2022-11-06T06:16:07.220Z,8.70
2022-11-06T06:18:55.610Z,8.70
2022-11-06T06:21:44.111Z,8.70
2022-11-06T06:24:33.874Z,8.60
2022-11-06T06:27:22.288Z,8.60
2022-11-06T06:30:12.710Z,8.60
2022-11-06T06:33:05.096Z,8.60
2022-11-06T06:35:53.508Z,8.60
2022-11-06T06:38:41.907Z,8.60
2022-11-06T06:41:32.104Z,8.60
2022-11-06T06:44:20.514Z,8.60
2022-11-06T06:47:08.943Z,8.60
2022-11-06T06:49:57.310Z,8.70
2022-11-06T06:52:45.750Z,8.80
2022-11-06T06:55:34.125Z,8.80
2022-11-06T06:58:24.323Z,8.80
2022-11-06T07:01:13.051Z,8.90
2022-11-06T07:03:43.833Z,8.90
2022-11-06T07:06:12.044Z,8.90
2022-11-06T07:08:40.159Z,8.80
2022-11-06T07:11:09.570Z,8.80
2022-11-06T07:13:39.022Z,8.80
2022-11-06T07:16:08.296Z,8.80
2022-11-06T07:18:37.207Z,8.80
2022-11-06T07:21:06.468Z,8.80
2022-11-06T07:23:35.289Z,8.80
2022-11-06T07:26:03.931Z,8.80
2022-11-06T07:28:32.052Z,8.90
2022-11-06T07:31:01.819Z,8.90
2022-11-06T07:33:30.133Z,8.90
2022-11-06T07:36:03.582Z,9.00
2022-11-06T07:38:31.790Z,9.10
2022-11-06T07:41:04.075Z,9.20
2022-11-06T07:43:33.124Z,9.30
2022-11-06T07:46:03.099Z,9.50
2022-11-06T07:48:31.612Z,9.80
2022-11-06T07:50:59.988Z,10.20
2022-11-06T07:53:28.264Z,10.50
2022-11-06T07:55:57.123Z,10.80
2022-11-06T07:58:25.327Z,11.20
2022-11-06T08:00:55.033Z,11.50
2022-11-06T08:03:24.932Z,11.80
2022-11-06T08:05:53.169Z,12.10
2022-11-06T08:08:21.336Z,12.30
2022-11-06T08:10:54.020Z,12.50
2022-11-06T08:13:23.810Z,12.80
2022-11-06T08:15:51.893Z,13.10
2022-11-06T08:18:20.024Z,13.30
2022-11-06T08:20:49.531Z,13.60
2022-11-06T08:23:17.647Z,14.00
2022-11-06T08:25:45.754Z,14.20
2022-11-06T08:28:14.127Z,14.50
2022-11-06T08:30:42.495Z,14.80
2022-11-06T08:33:10.788Z,15.10
2022-11-06T08:35:39.064Z,15.30
2022-11-06T08:38:11.457Z,15.50
2022-11-06T08:40:40.181Z,15.70
2022-11-06T08:43:10.062Z,15.80
2022-11-06T08:45:38.840Z,16.00
2022-11-06T08:48:07.973Z,16.20
2022-11-06T08:50:39.144Z,16.30
2022-11-06T08:53:07.436Z,16.50
2022-11-06T08:55:38.366Z,16.80
2022-11-06T08:58:06.932Z,17.00
2022-11-06T09:00:35.223Z,17.20
2022-11-06T09:03:07.137Z,17.30
2022-11-06T09:05:35.243Z,17.40
2022-11-06T09:08:03.383Z,17.40
2022-11-06T09:10:31.553Z,17.40
2022-11-06T09:13:01.124Z,17.30
2022-11-06T09:15:29.318Z,17.30
2022-11-06T09:17:57.424Z,17.20
2022-11-06T09:20:26.141Z,17.30
2022-11-06T09:22:54.380Z,17.30
2022-11-06T09:25:22.549Z,17.40
2022-11-06T09:27:58.549Z,17.50
2022-11-06T09:30:29.678Z,17.50
2022-11-06T09:32:59.038Z,17.50
2022-11-06T09:35:28.120Z,17.50
2022-11-06T09:37:56.241Z,17.50
2022-11-06T09:40:29.818Z,17.50
2022-11-06T09:43:08.733Z,17.50
2022-11-06T09:45:41.073Z,17.40
2022-11-06T09:48:17.682Z,17.30
2022-11-06T09:50:49.928Z,17.20
2022-11-06T09:53:21.280Z,17.20
2022-11-06T09:55:49.470Z,17.10
2022-11-06T09:58:21.436Z,17.00
2022-11-06T10:00:52.240Z,16.90
2022-11-06T10:03:24.933Z,16.70
2022-11-06T10:05:53.684Z,16.60
2022-11-06T10:08:23.135Z,16.50
2022-11-06T10:10:58.295Z,16.30
2022-11-06T10:13:46.743Z,16.20
2022-11-06T10:16:22.064Z,16.00
2022-11-06T10:18:57.274Z,15.90
2022-11-06T10:21:26.299Z,15.80
2022-11-06T10:23:57.739Z,15.70
2022-11-06T10:26:34.911Z,15.70
2022-11-06T10:29:27.712Z,15.60
2022-11-06T10:32:09.396Z,15.60
2022-11-06T10:34:39.182Z,15.70
2022-11-06T10:37:09.892Z,15.70
2022-11-06T10:39:38.246Z,15.70
2022-11-06T10:42:10.933Z,15.80
2022-11-06T10:44:40.424Z,15.80
2022-11-06T10:47:15.805Z,15.90
2022-11-06T10:49:47.324Z,16.00
2022-11-06T10:52:32.022Z,16.00
2022-11-06T10:55:15.332Z,16.10
2022-11-06T10:57:45.947Z,16.20
2022-11-06T11:00:15.229Z,16.30
2022-11-06T11:02:47.384Z,16.40
2022-11-06T11:05:17.706Z,16.50
2022-11-06T11:07:47.218Z,16.50
2022-11-06T11:10:32.386Z,16.70
2022-11-06T11:13:05.493Z,16.80
2022-11-06T11:15:45.402Z,17.00
2022-11-06T11:18:23.897Z,17.10
2022-11-06T11:20:53.201Z,17.20
2022-11-06T11:23:23.111Z,17.30
2022-11-06T11:25:52.660Z,17.50
2022-11-06T11:28:29.464Z,17.60
2022-11-06T11:31:07.908Z,17.80
2022-11-06T11:33:37.383Z,17.90
2022-11-06T11:36:06.698Z,18.10
2022-11-06T11:38:36.755Z,18.20
2022-11-06T11:41:09.594Z,18.40
2022-11-06T11:43:37.804Z,18.50
2022-11-06T11:46:19.063Z,18.70
2022-11-06T11:48:50.404Z,18.90
2022-11-06T11:51:35.010Z,19.10
2022-11-06T11:54:09.092Z,19.20
2022-11-06T11:59:37.633Z,19.40
2022-11-06T12:02:13.898Z,19.40
2022-11-06T12:04:45.077Z,19.30
2022-11-06T12:07:22.438Z,19.30
2022-11-06T12:09:50.656Z,19.20
2022-11-06T12:12:23.924Z,19.20
2022-11-06T12:15:07.913Z,19.20
2022-11-06T12:17:37.886Z,19.20
2022-11-06T12:20:13.316Z,19.30
2022-11-06T12:22:44.073Z,19.20
2022-11-06T12:25:16.186Z,19.10
2022-11-06T12:27:45.511Z,19.00
2022-11-06T12:30:15.272Z,18.80
2022-11-06T12:32:55.029Z,18.70
2022-11-06T12:35:27.858Z,18.50
2022-11-06T12:38:03.457Z,18.40
2022-11-06T12:40:32.691Z,18.30
2022-11-06T12:43:16.021Z,18.20
2022-11-06T12:46:04.920Z,18.10
2022-11-06T12:48:45.416Z,18.00
2022-11-06T12:51:19.395Z,17.90
2022-11-06T12:53:58.090Z,17.80
2022-11-06T12:56:29.340Z,17.80
2022-11-06T12:59:07.295Z,17.80
2022-11-06T13:01:44.374Z,17.90
2022-11-06T13:04:43.551Z,17.80
2022-11-06T13:07:36.410Z,17.80
2022-11-06T13:10:19.723Z,17.70
2022-11-06T13:12:57.310Z,17.60
2022-11-06T13:15:29.743Z,17.50
2022-11-06T13:18:01.100Z,17.40
2022-11-06T13:20:32.822Z,17.30
2022-11-06T13:23:06.805Z,17.20
2022-11-06T13:25:39.965Z,17.10
2022-11-06T13:28:23.596Z,17.00
2022-11-06T13:30:51.972Z,16.90
2022-11-06T13:33:24.322Z,16.80
2022-11-06T13:35:52.459Z,16.70
2022-11-06T13:38:24.557Z,16.60
2022-11-06T13:40:57.135Z,16.50
2022-11-06T13:43:32.650Z,16.50
2022-11-06T13:46:06.149Z,16.40
2022-11-06T13:48:42.409Z,16.30
2022-11-06T13:51:18.336Z,16.30
2022-11-06T13:53:53.029Z,16.30
2022-11-06T13:56:52.871Z,16.30
2022-11-06T13:59:47.913Z,16.20
2022-11-06T14:02:39.985Z,16.20
2022-11-06T14:05:44.482Z,16.20
2022-11-06T14:08:16.793Z,16.10
2022-11-06T14:10:54.060Z,16.00
2022-11-06T14:13:27.827Z,16.00
2022-11-06T14:16:08.231Z,16.00
2022-11-06T14:18:36.334Z,15.90
2022-11-06T14:21:51.051Z,15.80
2022-11-06T14:24:37.246Z,15.80
2022-11-06T14:27:10.676Z,15.70
2022-11-06T14:30:03.233Z,15.70
2022-11-06T14:32:42.936Z,15.60
2022-11-06T14:35:50.976Z,15.60
2022-11-06T14:38:37.915Z,15.60
2022-11-06T14:41:54.559Z,15.60
2022-11-06T14:44:48.025Z,15.50
2022-11-06T14:47:35.116Z,15.50
2022-11-06T14:50:07.410Z,15.40
2022-11-06T14:52:46.061Z,15.40
2022-11-06T14:55:31.918Z,15.40
2022-11-06T14:58:12.848Z,15.40
2022-11-06T15:00:49.550Z,15.30
2022-11-06T15:03:25.996Z,15.30
2022-11-06T15:05:55.319Z,15.30
2022-11-06T15:08:59.606Z,15.20
2022-11-06T15:11:51.654Z,15.20
2022-11-06T15:14:57.322Z,15.30
2022-11-06T15:17:33.447Z,15.20
2022-11-06T15:20:22.020Z,15.20
2022-11-06T15:23:15.072Z,15.20
2022-11-06T15:25:51.348Z,15.20
2022-11-06T15:28:22.017Z,15.20
2022-11-06T15:30:52.170Z,15.20
2022-11-06T15:33:27.305Z,15.10
2022-11-06T15:35:56.856Z,15.10
2022-11-06T15:38:38.184Z,15.10
2022-11-06T15:41:07.222Z,15.10
2022-11-06T15:43:37.484Z,15.10
2022-11-06T15:46:18.573Z,15.10
2022-11-06T15:48:49.240Z,15.00
2022-11-06T15:51:24.667Z,15.00
2022-11-06T15:53:52.842Z,15.00
2022-11-06T15:56:23.598Z,15.00
2022-11-06T15:59:07.695Z,15.00
2022-11-06T16:01:36.051Z,15.00
2022-11-06T16:04:13.056Z,15.00
2022-11-06T16:06:43.774Z,15.00
2022-11-06T16:09:17.739Z,15.00
2022-11-06T16:11:46.778Z,15.00
2022-11-06T16:14:15.323Z,15.00
2022-11-06T16:16:45.645Z,14.90
2022-11-06T16:19:31.068Z,14.90
2022-11-06T16:22:03.203Z,15.00
2022-11-06T16:24:34.024Z,14.90
2022-11-06T16:27:05.304Z,14.90
2022-11-06T16:29:33.592Z,14.90
2022-11-06T16:32:03.431Z,14.90
2022-11-06T16:34:43.907Z,14.80
2022-11-06T16:37:39.947Z,14.80
2022-11-06T16:40:48.595Z,14.80
2022-11-06T16:43:17.785Z,14.80
2022-11-06T16:45:57.443Z,14.80
2022-11-06T16:48:34.370Z,14.70
2022-11-06T16:51:06.213Z,14.70
2022-11-06T16:53:37.713Z,14.70
2022-11-06T16:56:07.550Z,14.70
2022-11-06T16:58:45.962Z,14.70
2022-11-06T17:01:19.951Z,14.70
2022-11-06T17:03:51.202Z,14.70
2022-11-06T17:06:25.871Z,14.70
2022-11-06T17:09:09.191Z,14.80
2022-11-06T17:11:38.671Z,14.80
2022-11-06T17:14:18.016Z,14.70
2022-11-06T17:16:46.894Z,14.80
2022-11-06T17:19:15.085Z,14.70
2022-11-06T17:21:44.630Z,14.70
2022-11-06T17:24:40.838Z,14.70
2022-11-06T17:27:00.898Z,14.70
2022-11-06T17:29:29.066Z,14.60
2022-11-06T17:31:57.354Z,14.60
2022-11-06T17:34:25.516Z,14.50
2022-11-06T17:36:55.028Z,14.50
2022-11-06T17:39:23.724Z,14.50
2022-11-06T17:41:53.478Z,14.40
2022-11-06T17:44:22.299Z,14.50
2022-11-06T17:46:50.636Z,14.40
2022-11-06T17:49:19.031Z,14.40
2022-11-06T17:52:00.086Z,14.40
2022-11-06T17:54:32.167Z,14.40
2022-11-06T17:57:01.853Z,14.40
2022-11-06T17:59:30.087Z,14.40
2022-11-06T18:01:58.576Z,14.40
2022-11-06T18:04:28.192Z,14.50
2022-11-06T18:06:56.305Z,14.50
2022-11-06T18:09:24.774Z,14.50
2022-11-06T18:11:54.837Z,14.50
2022-11-06T18:14:23.485Z,14.50
2022-11-06T18:16:51.588Z,14.50
2022-11-06T18:19:21.818Z,14.50
2022-11-06T18:21:49.926Z,14.60
2022-11-06T18:24:18.025Z,14.60
2022-11-06T18:26:46.344Z,14.60
2022-11-06T18:29:15.882Z,14.60
2022-11-06T18:31:43.981Z,14.60
2022-11-06T18:34:18.395Z,14.50
2022-11-06T18:36:48.872Z,14.50
2022-11-06T18:39:17.007Z,14.50
2022-11-06T18:41:45.213Z,14.50
2022-11-06T18:44:14.844Z,14.50
2022-11-06T18:46:42.970Z,14.50
2022-11-06T18:49:11.669Z,14.40
2022-11-06T18:51:40.704Z,14.40
2022-11-06T18:54:10.580Z,14.40
2022-11-06T18:56:38.895Z,14.40
2022-11-06T18:59:07.967Z,14.40
2022-11-06T19:01:37.480Z,14.30
2022-11-06T19:04:05.862Z,14.30
2022-11-06T19:06:34.274Z,14.30
2022-11-06T19:09:02.400Z,14.30
2022-11-06T19:11:30.506Z,14.30
2022-11-06T19:13:58.632Z,14.20
2022-11-06T19:16:26.840Z,14.20
2022-11-06T19:21:29.961Z,14.20
2022-11-06T19:24:03.319Z,14.20
2022-11-06T19:26:32.625Z,14.20
2022-11-06T19:29:01.317Z,14.20
2022-11-06T19:31:30.263Z,14.20
2022-11-06T19:34:00.249Z,14.20
2022-11-06T19:36:29.298Z,14.20
2022-11-06T19:38:58.433Z,14.20
2022-11-06T19:41:26.897Z,14.20
2022-11-06T19:43:55.016Z,14.20
2022-11-06T19:46:27.192Z,14.20
2022-11-06T19:48:59.133Z,14.10
2022-11-06T19:51:27.291Z,14.10
2022-11-06T19:53:55.527Z,14.10
2022-11-06T19:56:23.819Z,14.10
2022-11-06T19:58:52.794Z,14.10
2022-11-06T20:01:21.780Z,14.10
2022-11-06T20:03:50.040Z,14.10
2022-11-06T20:06:19.638Z,14.10
2022-11-06T20:08:48.981Z,14.10
2022-11-06T20:11:17.312Z,14.20
2022-11-06T20:13:45.687Z,14.20
2022-11-06T20:16:15.627Z,14.10
2022-11-06T20:18:43.840Z,14.10
2022-11-06T20:21:12.945Z,14.20
2022-11-06T20:23:42.396Z,14.20
2022-11-06T20:26:11.205Z,14.20
2022-11-06T20:28:39.355Z,14.20
2022-11-06T20:31:08.143Z,14.20
2022-11-06T20:33:36.537Z,14.20
2022-11-06T20:36:12.064Z,14.20
2022-11-06T20:38:41.721Z,14.20
2022-11-06T20:41:09.849Z,14.20
2022-11-06T20:43:37.925Z,14.20
2022-11-06T20:46:06.317Z,14.20
2022-11-06T20:48:34.681Z,14.20
2022-11-06T20:51:03.979Z,14.20
2022-11-06T20:53:32.397Z,14.20
2022-11-06T20:56:02.987Z,14.10
2022-11-06T20:58:31.516Z,14.20
2022-11-06T21:01:03.481Z,14.20
2022-11-06T21:03:52.363Z,14.10
2022-11-06T21:06:40.821Z,14.10
2022-11-06T21:09:29.226Z,14.20
2022-11-06T21:12:18.987Z,14.20
2022-11-06T21:15:08.921Z,14.10
2022-11-06T21:17:57.384Z,14.10
2022-11-06T21:20:45.798Z,14.10
2022-11-06T21:23:34.633Z,14.10
2022-11-06T21:26:25.444Z,14.10
2022-11-06T21:29:15.166Z,14.10
2022-11-06T21:32:03.595Z,14.10
2022-11-06T21:34:52.018Z,14.10
2022-11-06T21:37:40.360Z,14.10
2022-11-06T21:40:28.818Z,14.10
2022-11-06T21:43:17.316Z,14.00
2022-11-06T21:46:08.143Z,14.00
2022-11-06T21:48:57.233Z,14.00
2022-11-06T21:51:45.761Z,14.00
2022-11-06T21:54:51.636Z,13.90
2022-11-06T21:57:40.658Z,13.90
2022-11-06T22:00:29.091Z,13.90
2022-11-06T22:03:18.860Z,13.90
2022-11-06T22:06:08.281Z,13.90
2022-11-06T22:08:58.704Z,13.90
2022-11-06T22:11:47.084Z,13.90
2022-11-06T22:14:35.526Z,13.90
2022-11-06T22:17:23.919Z,13.90
2022-11-06T22:20:13.921Z,14.00
2022-11-06T22:23:02.311Z,14.00
2022-11-06T22:25:50.680Z,14.00
2022-11-06T22:28:39.107Z,14.00
2022-11-06T22:31:27.570Z,14.00
2022-11-06T22:34:15.996Z,14.00
2022-11-06T22:37:05.742Z,14.10
2022-11-06T22:39:54.152Z,14.10
2022-11-06T22:42:45.802Z,14.10
2022-11-06T22:45:36.978Z,14.10
2022-11-06T22:48:25.737Z,14.10
2022-11-06T22:51:15.464Z,14.10
2022-11-06T22:54:05.665Z,14.10
2022-11-06T22:56:53.999Z,14.10
2022-11-06T22:59:42.399Z,14.20
2022-11-06T23:02:30.782Z,14.10
2022-11-06T23:05:19.142Z,14.10
2022-11-06T23:08:07.566Z,14.20
2022-11-06T23:10:57.350Z,14.20
2022-11-06T23:13:45.922Z,14.20
2022-11-06T23:16:52.101Z,14.20
2022-11-06T23:19:40.459Z,14.20
2022-11-06T23:22:37.868Z,14.20
2022-11-06T23:25:26.679Z,14.20
2022-11-06T23:28:16.398Z,14.30
2022-11-06T23:31:07.414Z,14.30
2022-11-06T23:33:56.241Z,14.30
2022-11-06T23:36:44.611Z,14.30
2022-11-06T23:39:32.965Z,14.30
2022-11-06T23:42:22.674Z,14.40
2022-11-06T23:45:29.767Z,14.30
2022-11-06T23:48:18.217Z,14.30
2022-11-06T23:51:06.938Z,14.40
2022-11-06T23:53:55.506Z,14.40
2022-11-06T23:56:43.892Z,14.40
2022-11-06T23:59:32.265Z,14.40
